sensor_id;sensor_type;location;lat;lon;timestamp;pressure;altitude;pressure_sealevel;temperature;humidity
49377;BME280;35253;34.688;33.040;2024-02-23T00:02:15;101592.25;;;14.44;100.00
49377;BME280;35253;34.688;33.040;2024-02-23T00:04:41;101595.47;;;14.35;100.00
49377;BME280;35253;34.688;33.040;2024-02-23T00:07:07;101598.59;;;14.43;100.00
49377;BME280;35253;34.688;33.040;2024-02-23T00:09:33;101602.44;;;14.39;100.00
49377;BME280;35253;34.688;33.040;2024-02-23T00:11:59;101602.22;;;14.42;100.00
49377;BME280;35253;34.688;33.040;2024-02-23T00:14:25;101589.41;;;14.47;100.00
49377;BME280;35253;34.688;33.040;2024-02-23T00:16:51;101580.25;;;14.35;100.00
49377;BME280;35253;34.688;33.040;2024-02-23T00:19:16;101593.59;;;14.37;100.00
49377;BME280;35253;34.688;33.040;2024-02-23T00:21:44;101600.94;;;14.33;100.00
49377;BME280;35253;34.688;33.040;2024-02-23T00:24:15;101608.81;;;14.36;100.00
49377;BME280;35253;34.688;33.040;2024-02-23T00:26:42;101613.03;;;14.40;100.00
49377;BME280;35253;34.688;33.040;2024-02-23T00:29:07;101603.47;;;14.36;100.00
49377;BME280;35253;34.688;33.040;2024-02-23T00:31:34;101589.34;;;14.33;100.00
49377;BME280;35253;34.688;33.040;2024-02-23T00:34:02;101591.69;;;14.23;100.00
49377;BME280;35253;34.688;33.040;2024-02-23T00:36:28;101584.72;;;14.35;100.00
49377;BME280;35253;34.688;33.040;2024-02-23T00:38:54;101583.03;;;14.34;100.00
49377;BME280;35253;34.688;33.040;2024-02-23T00:41:20;101587.88;;;14.43;100.00
49377;BME280;35253;34.688;33.040;2024-02-23T00:43:46;101568.31;;;14.41;100.00
49377;BME280;35253;34.688;33.040;2024-02-23T00:46:12;101554.41;;;14.49;100.00
49377;BME280;35253;34.688;33.040;2024-02-23T00:48:40;101559.66;;;14.36;100.00
49377;BME280;35253;34.688;33.040;2024-02-23T00:51:05;101545.69;;;14.45;100.00
49377;BME280;35253;34.688;33.040;2024-02-23T00:53:32;101548.94;;;14.36;100.00
49377;BME280;35253;34.688;33.040;2024-02-23T00:55:58;101547.38;;;14.32;100.00
49377;BME280;35253;34.688;33.040;2024-02-23T00:58:24;101534.16;;;14.29;100.00
49377;BME280;35253;34.688;33.040;2024-02-23T01:00:49;101539.94;;;14.37;100.00
49377;BME280;35253;34.688;33.040;2024-02-23T01:03:15;101547.97;;;14.37;100.00
49377;BME280;35253;34.688;33.040;2024-02-23T01:05:41;101539.75;;;14.40;100.00
49377;BME280;35253;34.688;33.040;2024-02-23T01:08:08;101537.41;;;14.34;100.00
49377;BME280;35253;34.688;33.040;2024-02-23T01:10:34;101541.09;;;14.47;100.00
49377;BME280;35253;34.688;33.040;2024-02-23T01:13:00;101547.13;;;14.36;100.00
49377;BME280;35253;34.688;33.040;2024-02-23T01:15:25;101542.56;;;14.23;100.00
49377;BME280;35253;34.688;33.040;2024-02-23T01:17:51;101525.91;;;14.32;100.00
49377;BME280;35253;34.688;33.040;2024-02-23T01:20:17;101539.94;;;14.37;100.00
49377;BME280;35253;34.688;33.040;2024-02-23T01:22:43;101540.59;;;14.40;100.00
49377;BME280;35253;34.688;33.040;2024-02-23T01:25:08;101543.00;;;14.45;100.00
49377;BME280;35253;34.688;33.040;2024-02-23T01:27:34;101540.72;;;14.53;100.00
49377;BME280;35253;34.688;33.040;2024-02-23T01:30:00;101533.81;;;14.49;100.00
49377;BME280;35253;34.688;33.040;2024-02-23T01:32:26;101536.09;;;14.41;100.00
49377;BME280;35253;34.688;33.040;2024-02-23T01:34:51;101526.44;;;14.38;100.00
49377;BME280;35253;34.688;33.040;2024-02-23T01:37:17;101529.81;;;14.26;100.00
49377;BME280;35253;34.688;33.040;2024-02-23T01:39:43;101520.34;;;14.21;100.00
49377;BME280;35253;34.688;33.040;2024-02-23T01:42:09;101525.88;;;14.18;100.00
49377;BME280;35253;34.688;33.040;2024-02-23T01:44:34;101529.34;;;14.20;100.00
49377;BME280;35253;34.688;33.040;2024-02-23T01:47:00;101528.38;;;14.21;100.00
49377;BME280;35253;34.688;33.040;2024-02-23T01:49:26;101537.84;;;14.26;100.00
49377;BME280;35253;34.688;33.040;2024-02-23T01:51:57;101540.81;;;14.22;100.00
49377;BME280;35253;34.688;33.040;2024-02-23T01:54:24;101538.38;;;14.33;100.00
49377;BME280;35253;34.688;33.040;2024-02-23T01:56:50;101526.09;;;14.29;100.00
49377;BME280;35253;34.688;33.040;2024-02-23T01:59:16;101540.09;;;14.34;100.00
49377;BME280;35253;34.688;33.040;2024-02-23T02:01:45;101541.66;;;14.38;100.00
49377;BME280;35253;34.688;33.040;2024-02-23T02:04:11;101553.28;;;14.38;100.00
49377;BME280;35253;34.688;33.040;2024-02-23T02:06:37;101556.97;;;14.36;100.00
49377;BME280;35253;34.688;33.040;2024-02-23T02:09:02;101550.81;;;14.34;100.00
49377;BME280;35253;34.688;33.040;2024-02-23T02:11:28;101557.69;;;14.24;100.00
49377;BME280;35253;34.688;33.040;2024-02-23T02:13:54;101557.50;;;14.13;100.00
49377;BME280;35253;34.688;33.040;2024-02-23T02:16:19;101549.28;;;14.00;100.00
49377;BME280;35253;34.688;33.040;2024-02-23T02:18:45;101564.53;;;13.99;100.00
49377;BME280;35253;34.688;33.040;2024-02-23T02:21:11;101571.19;;;14.08;100.00
49377;BME280;35253;34.688;33.040;2024-02-23T02:23:37;101561.41;;;14.07;100.00
49377;BME280;35253;34.688;33.040;2024-02-23T02:26:03;101570.72;;;13.86;100.00
49377;BME280;35253;34.688;33.040;2024-02-23T02:28:29;101568.78;;;14.04;100.00
49377;BME280;35253;34.688;33.040;2024-02-23T02:30:55;101566.44;;;13.97;100.00
49377;BME280;35253;34.688;33.040;2024-02-23T02:33:21;101565.56;;;13.97;100.00
49377;BME280;35253;34.688;33.040;2024-02-23T02:35:48;101572.25;;;13.90;100.00
49377;BME280;35253;34.688;33.040;2024-02-23T02:38:15;101564.09;;;13.91;100.00
49377;BME280;35253;34.688;33.040;2024-02-23T02:40:41;101564.81;;;13.95;100.00
49377;BME280;35253;34.688;33.040;2024-02-23T02:43:07;101567.16;;;13.85;100.00
49377;BME280;35253;34.688;33.040;2024-02-23T02:45:33;101558.19;;;14.00;100.00
49377;BME280;35253;34.688;33.040;2024-02-23T02:48:03;101563.75;;;13.97;100.00
49377;BME280;35253;34.688;33.040;2024-02-23T02:50:28;101550.00;;;14.04;100.00
49377;BME280;35253;34.688;33.040;2024-02-23T02:52:54;101552.69;;;14.04;100.00
49377;BME280;35253;34.688;33.040;2024-02-23T02:55:20;101552.97;;;14.13;100.00
49377;BME280;35253;34.688;33.040;2024-02-23T02:57:45;101562.84;;;14.13;100.00
49377;BME280;35253;34.688;33.040;2024-02-23T03:00:12;101583.06;;;14.18;100.00
49377;BME280;35253;34.688;33.040;2024-02-23T03:02:37;101585.84;;;14.17;100.00
49377;BME280;35253;34.688;33.040;2024-02-23T03:05:03;101599.00;;;14.21;100.00
49377;BME280;35253;34.688;33.040;2024-02-23T03:07:29;101604.25;;;14.23;100.00
49377;BME280;35253;34.688;33.040;2024-02-23T03:09:55;101603.50;;;14.21;100.00
49377;BME280;35253;34.688;33.040;2024-02-23T03:12:21;101598.06;;;14.07;100.00
49377;BME280;35253;34.688;33.040;2024-02-23T03:14:47;101588.44;;;14.18;100.00
49377;BME280;35253;34.688;33.040;2024-02-23T03:17:13;101598.00;;;14.08;100.00
49377;BME280;35253;34.688;33.040;2024-02-23T03:19:38;101592.34;;;14.13;100.00
49377;BME280;35253;34.688;33.040;2024-02-23T03:22:05;101592.91;;;14.18;100.00
49377;BME280;35253;34.688;33.040;2024-02-23T03:24:30;101579.31;;;14.07;100.00
49377;BME280;35253;34.688;33.040;2024-02-23T03:26:56;101580.50;;;14.01;100.00
49377;BME280;35253;34.688;33.040;2024-02-23T03:29:22;101596.94;;;14.11;100.00
49377;BME280;35253;34.688;33.040;2024-02-23T03:31:50;101580.16;;;14.07;100.00
49377;BME280;35253;34.688;33.040;2024-02-23T03:34:16;101569.97;;;13.98;100.00
49377;BME280;35253;34.688;33.040;2024-02-23T03:36:42;101568.59;;;13.91;100.00
49377;BME280;35253;34.688;33.040;2024-02-23T03:39:08;101587.69;;;14.00;100.00
49377;BME280;35253;34.688;33.040;2024-02-23T03:41:34;101578.25;;;14.09;100.00
49377;BME280;35253;34.688;33.040;2024-02-23T03:43:59;101577.56;;;14.06;100.00
49377;BME280;35253;34.688;33.040;2024-02-23T03:46:25;101586.78;;;13.86;100.00
49377;BME280;35253;34.688;33.040;2024-02-23T03:48:51;101582.94;;;14.06;100.00
49377;BME280;35253;34.688;33.040;2024-02-23T03:51:17;101583.84;;;13.90;100.00
49377;BME280;35253;34.688;33.040;2024-02-23T03:53:43;101580.09;;;13.93;100.00
49377;BME280;35253;34.688;33.040;2024-02-23T03:56:08;101578.03;;;13.82;100.00
49377;BME280;35253;34.688;33.040;2024-02-23T03:58:34;101566.22;;;13.86;100.00
49377;BME280;35253;34.688;33.040;2024-02-23T04:00:59;101566.31;;;13.69;100.00
49377;BME280;35253;34.688;33.040;2024-02-23T04:03:25;101581.09;;;13.76;100.00
49377;BME280;35253;34.688;33.040;2024-02-23T04:05:51;101569.50;;;13.76;100.00
49377;BME280;35253;34.688;33.040;2024-02-23T04:08:16;101570.13;;;13.81;100.00
49377;BME280;35253;34.688;33.040;2024-02-23T04:10:42;101564.41;;;13.71;100.00
49377;BME280;35253;34.688;33.040;2024-02-23T04:13:07;101575.22;;;13.85;100.00
49377;BME280;35253;34.688;33.040;2024-02-23T04:15:34;101587.66;;;13.86;100.00
49377;BME280;35253;34.688;33.040;2024-02-23T04:17:59;101572.25;;;13.90;100.00
49377;BME280;35253;34.688;33.040;2024-02-23T04:20:25;101581.31;;;14.03;100.00
49377;BME280;35253;34.688;33.040;2024-02-23T04:22:51;101573.13;;;13.90;100.00
49377;BME280;35253;34.688;33.040;2024-02-23T04:25:16;101587.28;;;13.92;100.00
49377;BME280;35253;34.688;33.040;2024-02-23T04:27:42;101587.09;;;13.95;100.00
49377;BME280;35253;34.688;33.040;2024-02-23T04:30:11;101598.53;;;13.99;100.00
49377;BME280;35253;34.688;33.040;2024-02-23T04:32:37;101589.34;;;14.03;100.00
49377;BME280;35253;34.688;33.040;2024-02-23T04:35:02;101601.25;;;14.13;100.00
49377;BME280;35253;34.688;33.040;2024-02-23T04:37:28;101594.47;;;13.92;100.00
49377;BME280;35253;34.688;33.040;2024-02-23T04:39:54;101601.09;;;14.00;100.00
49377;BME280;35253;34.688;33.040;2024-02-23T04:42:19;101595.06;;;13.97;100.00
49377;BME280;35253;34.688;33.040;2024-02-23T04:44:45;101596.41;;;14.04;100.00
49377;BME280;35253;34.688;33.040;2024-02-23T04:47:11;101607.38;;;13.85;100.00
49377;BME280;35253;34.688;33.040;2024-02-23T04:49:37;101593.97;;;13.85;100.00
49377;BME280;35253;34.688;33.040;2024-02-23T04:52:04;101590.28;;;14.02;100.00
49377;BME280;35253;34.688;33.040;2024-02-23T04:54:30;101585.13;;;13.83;100.00
49377;BME280;35253;34.688;33.040;2024-02-23T04:56:56;101586.94;;;13.98;100.00
49377;BME280;35253;34.688;33.040;2024-02-23T04:59:21;101594.72;;;14.03;100.00
49377;BME280;35253;34.688;33.040;2024-02-23T05:01:47;101587.97;;;13.96;100.00
49377;BME280;35253;34.688;33.040;2024-02-23T05:04:13;101604.16;;;13.94;100.00
49377;BME280;35253;34.688;33.040;2024-02-23T05:06:38;101602.50;;;14.08;100.00
49377;BME280;35253;34.688;33.040;2024-02-23T05:09:04;101614.91;;;14.09;100.00
49377;BME280;35253;34.688;33.040;2024-02-23T05:11:31;101610.25;;;14.12;100.00
49377;BME280;35253;34.688;33.040;2024-02-23T05:13:57;101610.75;;;14.19;100.00
49377;BME280;35253;34.688;33.040;2024-02-23T05:16:22;101617.84;;;14.20;100.00
49377;BME280;35253;34.688;33.040;2024-02-23T05:18:48;101606.56;;;14.29;100.00
49377;BME280;35253;34.688;33.040;2024-02-23T05:21:16;101611.00;;;14.30;100.00
49377;BME280;35253;34.688;33.040;2024-02-23T05:23:42;101614.22;;;14.21;100.00
49377;BME280;35253;34.688;33.040;2024-02-23T05:26:08;101623.19;;;14.35;100.00
49377;BME280;35253;34.688;33.040;2024-02-23T05:28:34;101635.13;;;14.30;100.00
49377;BME280;35253;34.688;33.040;2024-02-23T05:31:02;101635.81;;;14.33;100.00
49377;BME280;35253;34.688;33.040;2024-02-23T05:33:29;101647.19;;;14.53;100.00
49377;BME280;35253;34.688;33.040;2024-02-23T05:35:54;101646.81;;;14.59;100.00
49377;BME280;35253;34.688;33.040;2024-02-23T05:38:20;101646.81;;;14.59;100.00
49377;BME280;35253;34.688;33.040;2024-02-23T05:40:46;101648.00;;;14.69;100.00
49377;BME280;35253;34.688;33.040;2024-02-23T05:43:13;101643.28;;;14.58;100.00
49377;BME280;35253;34.688;33.040;2024-02-23T05:45:39;101646.75;;;14.74;100.00
49377;BME280;35253;34.688;33.040;2024-02-23T05:48:06;101646.78;;;14.88;100.00
49377;BME280;35253;34.688;33.040;2024-02-23T05:50:32;101665.78;;;15.00;100.00
49377;BME280;35253;34.688;33.040;2024-02-23T05:52:58;101660.59;;;15.11;100.00
49377;BME280;35253;34.688;33.040;2024-02-23T05:55:24;101645.22;;;15.27;100.00
49377;BME280;35253;34.688;33.040;2024-02-23T05:57:49;101649.66;;;15.42;100.00
49377;BME280;35253;34.688;33.040;2024-02-23T06:00:16;101662.16;;;15.57;100.00
49377;BME280;35253;34.688;33.040;2024-02-23T06:02:45;101661.44;;;15.68;100.00
49377;BME280;35253;34.688;33.040;2024-02-23T06:05:12;101654.22;;;15.83;100.00
49377;BME280;35253;34.688;33.040;2024-02-23T06:07:38;101645.81;;;16.01;100.00
49377;BME280;35253;34.688;33.040;2024-02-23T06:10:04;101648.72;;;16.11;100.00
49377;BME280;35253;34.688;33.040;2024-02-23T06:12:32;101646.41;;;16.19;100.00
49377;BME280;35253;34.688;33.040;2024-02-23T06:14:57;101647.47;;;16.16;100.00
49377;BME280;35253;34.688;33.040;2024-02-23T06:17:24;101655.47;;;16.31;100.00
49377;BME280;35253;34.688;33.040;2024-02-23T06:19:50;101659.16;;;16.42;100.00
49377;BME280;35253;34.688;33.040;2024-02-23T06:22:16;101657.09;;;16.46;100.00
49377;BME280;35253;34.688;33.040;2024-02-23T06:24:47;101657.00;;;16.47;100.00
49377;BME280;35253;34.688;33.040;2024-02-23T06:27:12;101661.88;;;16.55;100.00
49377;BME280;35253;34.688;33.040;2024-02-23T06:29:38;101670.31;;;16.63;100.00
49377;BME280;35253;34.688;33.040;2024-02-23T06:32:05;101675.84;;;16.74;100.00
49377;BME280;35253;34.688;33.040;2024-02-23T06:34:31;101685.44;;;16.78;100.00
49377;BME280;35253;34.688;33.040;2024-02-23T06:36:57;101686.94;;;16.95;100.00
49377;BME280;35253;34.688;33.040;2024-02-23T06:39:22;101701.75;;;17.02;100.00
49377;BME280;35253;34.688;33.040;2024-02-23T06:41:48;101720.38;;;17.18;100.00
49377;BME280;35253;34.688;33.040;2024-02-23T06:44:14;101716.16;;;17.26;100.00
49377;BME280;35253;34.688;33.040;2024-02-23T06:46:39;101700.13;;;17.37;100.00
49377;BME280;35253;34.688;33.040;2024-02-23T06:49:05;101692.88;;;17.50;100.00
49377;BME280;35253;34.688;33.040;2024-02-23T06:51:31;101687.59;;;17.62;100.00
49377;BME280;35253;34.688;33.040;2024-02-23T06:53:57;101684.22;;;17.71;100.00
49377;BME280;35253;34.688;33.040;2024-02-23T06:56:23;101693.78;;;17.87;100.00
49377;BME280;35253;34.688;33.040;2024-02-23T06:58:49;101699.69;;;17.92;100.00
49377;BME280;35253;34.688;33.040;2024-02-23T07:01:14;101686.59;;;17.75;100.00
49377;BME280;35253;34.688;33.040;2024-02-23T07:03:40;101686.69;;;17.74;100.00
49377;BME280;35253;34.688;33.040;2024-02-23T07:06:08;101692.22;;;17.72;100.00
49377;BME280;35253;34.688;33.040;2024-02-23T07:08:35;101699.34;;;17.61;100.00
49377;BME280;35253;34.688;33.040;2024-02-23T07:11:01;101688.56;;;17.61;100.00
49377;BME280;35253;34.688;33.040;2024-02-23T07:13:27;101685.84;;;17.61;100.00
49377;BME280;35253;34.688;33.040;2024-02-23T07:15:52;101693.22;;;17.59;100.00
49377;BME280;35253;34.688;33.040;2024-02-23T07:18:18;101704.53;;;17.64;100.00
49377;BME280;35253;34.688;33.040;2024-02-23T07:20:44;101709.47;;;17.70;100.00
49377;BME280;35253;34.688;33.040;2024-02-23T07:23:10;101717.22;;;17.74;100.00
49377;BME280;35253;34.688;33.040;2024-02-23T07:25:35;101717.84;;;17.78;100.00
49377;BME280;35253;34.688;33.040;2024-02-23T07:28:01;101707.59;;;17.83;100.00
49377;BME280;35253;34.688;33.040;2024-02-23T07:30:26;101710.19;;;17.84;100.00
49377;BME280;35253;34.688;33.040;2024-02-23T07:32:52;101711.13;;;17.96;100.00
49377;BME280;35253;34.688;33.040;2024-02-23T07:35:18;101717.34;;;18.09;100.00
49377;BME280;35253;34.688;33.040;2024-02-23T07:37:43;101710.72;;;18.13;100.00
49377;BME280;35253;34.688;33.040;2024-02-23T07:40:09;101714.03;;;18.29;100.00
49377;BME280;35253;34.688;33.040;2024-02-23T07:42:35;101707.47;;;18.44;100.00
49377;BME280;35253;34.688;33.040;2024-02-23T07:45:05;101704.25;;;18.39;100.00
49377;BME280;35253;34.688;33.040;2024-02-23T07:47:32;101699.25;;;18.22;100.00
49377;BME280;35253;34.688;33.040;2024-02-23T07:49:58;101708.94;;;18.01;100.00
49377;BME280;35253;34.688;33.040;2024-02-23T07:52:23;101705.47;;;17.99;100.00
49377;BME280;35253;34.688;33.040;2024-02-23T07:54:51;101712.84;;;17.97;100.00
49377;BME280;35253;34.688;33.040;2024-02-23T07:57:18;101716.25;;;18.12;100.00
49377;BME280;35253;34.688;33.040;2024-02-23T07:59:44;101718.81;;;18.13;100.00
49377;BME280;35253;34.688;33.040;2024-02-23T08:02:10;101730.09;;;18.07;100.00
49377;BME280;35253;34.688;33.040;2024-02-23T08:04:36;101741.63;;;18.09;100.00
49377;BME280;35253;34.688;33.040;2024-02-23T08:07:01;101734.34;;;18.22;100.00
49377;BME280;35253;34.688;33.040;2024-02-23T08:09:27;101744.19;;;18.23;100.00
49377;BME280;35253;34.688;33.040;2024-02-23T08:11:53;101752.03;;;18.26;100.00
49377;BME280;35253;34.688;33.040;2024-02-23T08:14:18;101744.00;;;18.37;100.00
49377;BME280;35253;34.688;33.040;2024-02-23T08:16:44;101739.31;;;18.28;100.00
49377;BME280;35253;34.688;33.040;2024-02-23T08:19:09;101745.63;;;18.03;100.00
49377;BME280;35253;34.688;33.040;2024-02-23T08:21:35;101738.78;;;18.23;100.00
49377;BME280;35253;34.688;33.040;2024-02-23T08:24:01;101735.63;;;18.29;100.00
49377;BME280;35253;34.688;33.040;2024-02-23T08:26:28;101728.34;;;18.42;100.00
49377;BME280;35253;34.688;33.040;2024-02-23T08:28:53;101730.03;;;18.43;100.00
49377;BME280;35253;34.688;33.040;2024-02-23T08:31:19;101724.53;;;18.45;100.00
49377;BME280;35253;34.688;33.040;2024-02-23T08:33:45;101721.28;;;18.53;100.00
49377;BME280;35253;34.688;33.040;2024-02-23T08:36:10;101722.75;;;18.57;100.00
49377;BME280;35253;34.688;33.040;2024-02-23T08:38:36;101719.59;;;18.63;100.00
49377;BME280;35253;34.688;33.040;2024-02-23T08:41:02;101725.78;;;18.65;100.00
49377;BME280;35253;34.688;33.040;2024-02-23T08:43:28;101722.22;;;18.75;100.00
49377;BME280;35253;34.688;33.040;2024-02-23T08:45:54;101719.69;;;18.85;100.00
49377;BME280;35253;34.688;33.040;2024-02-23T08:48:19;101706.41;;;18.34;100.00
49377;BME280;35253;34.688;33.040;2024-02-23T08:50:45;101717.13;;;18.12;100.00
49377;BME280;35253;34.688;33.040;2024-02-23T08:53:11;101721.47;;;18.50;100.00
49377;BME280;35253;34.688;33.040;2024-02-23T08:55:36;101704.50;;;18.60;100.00
49377;BME280;35253;34.688;33.040;2024-02-23T08:58:02;101693.34;;;18.65;100.00
49377;BME280;35253;34.688;33.040;2024-02-23T09:00:28;101697.81;;;18.77;100.00
49377;BME280;35253;34.688;33.040;2024-02-23T09:02:53;101697.31;;;18.83;100.00
49377;BME280;35253;34.688;33.040;2024-02-23T09:05:19;101686.03;;;18.89;100.00
49377;BME280;35253;34.688;33.040;2024-02-23T09:07:46;101693.34;;;18.65;100.00
49377;BME280;35253;34.688;33.040;2024-02-23T09:10:11;101687.97;;;18.87;100.00
49377;BME280;35253;34.688;33.040;2024-02-23T09:12:37;101685.34;;;18.39;100.00
49377;BME280;35253;34.688;33.040;2024-02-23T09:15:04;101685.69;;;18.59;100.00
49377;BME280;35253;34.688;33.040;2024-02-23T09:17:30;101687.16;;;18.86;100.00
49377;BME280;35253;34.688;33.040;2024-02-23T09:19:56;101693.94;;;19.03;100.00
49377;BME280;35253;34.688;33.040;2024-02-23T09:22:22;101693.94;;;19.03;100.00
49377;BME280;35253;34.688;33.040;2024-02-23T09:24:48;101698.22;;;19.06;100.00
49377;BME280;35253;34.688;33.040;2024-02-23T09:27:13;101692.16;;;18.80;100.00
49377;BME280;35253;34.688;33.040;2024-02-23T09:29:40;101691.22;;;19.03;100.00
49377;BME280;35253;34.688;33.040;2024-02-23T09:32:07;101693.44;;;18.39;100.00
49377;BME280;35253;34.688;33.040;2024-02-23T09:34:32;101706.13;;;18.74;100.00
49377;BME280;35253;34.688;33.040;2024-02-23T09:36:58;101706.88;;;18.76;100.00
49377;BME280;35253;34.688;33.040;2024-02-23T09:39:24;101711.47;;;18.98;100.00
49377;BME280;35253;34.688;33.040;2024-02-23T09:41:52;101703.78;;;19.15;100.00
49377;BME280;35253;34.688;33.040;2024-02-23T09:44:19;101701.88;;;18.94;100.00
49377;BME280;35253;34.688;33.040;2024-02-23T09:46:48;101706.78;;;18.54;100.00
49377;BME280;35253;34.688;33.040;2024-02-23T09:49:15;101709.34;;;18.31;100.00
49377;BME280;35253;34.688;33.040;2024-02-23T09:51:44;101698.78;;;18.76;100.00
49377;BME280;35253;34.688;33.040;2024-02-23T09:54:10;101696.53;;;18.70;100.00
49377;BME280;35253;34.688;33.040;2024-02-23T09:56:36;101699.78;;;18.86;100.00
49377;BME280;35253;34.688;33.040;2024-02-23T09:59:03;101697.63;;;18.67;100.00
49377;BME280;35253;34.688;33.040;2024-02-23T10:01:30;101689.53;;;18.43;100.00
49377;BME280;35253;34.688;33.040;2024-02-23T10:03:59;101684.16;;;18.20;100.00
49377;BME280;35253;34.688;33.040;2024-02-23T10:06:26;101682.28;;;18.68;100.00
49377;BME280;35253;34.688;33.040;2024-02-23T10:08:52;101669.75;;;18.67;100.00
49377;BME280;35253;34.688;33.040;2024-02-23T10:11:21;101661.72;;;18.89;100.00
49377;BME280;35253;34.688;33.040;2024-02-23T10:13:50;101660.13;;;19.09;100.00
49377;BME280;35253;34.688;33.040;2024-02-23T10:16:20;101660.19;;;18.74;100.00
49377;BME280;35253;34.688;33.040;2024-02-23T10:18:49;101665.75;;;18.72;100.00
49377;BME280;35253;34.688;33.040;2024-02-23T10:21:18;101666.44;;;19.20;100.00
49377;BME280;35253;34.688;33.040;2024-02-23T10:23:44;101664.19;;;19.03;100.00
49377;BME280;35253;34.688;33.040;2024-02-23T10:26:13;101648.25;;;19.33;100.00
49377;BME280;35253;34.688;33.040;2024-02-23T10:28:45;101652.66;;;19.23;100.00
49377;BME280;35253;34.688;33.040;2024-02-23T10:31:11;101647.72;;;19.40;100.00
49377;BME280;35253;34.688;33.040;2024-02-23T10:33:38;101645.28;;;19.59;100.00
49377;BME280;35253;34.688;33.040;2024-02-23T10:36:05;101642.66;;;19.91;100.00
49377;BME280;35253;34.688;33.040;2024-02-23T10:38:37;101642.75;;;20.00;100.00
49377;BME280;35253;34.688;33.040;2024-02-23T10:41:05;101634.31;;;20.14;100.00
49377;BME280;35253;34.688;33.040;2024-02-23T10:43:48;101631.28;;;20.08;100.00
49377;BME280;35253;34.688;33.040;2024-02-23T10:46:14;101640.09;;;20.21;100.00
49377;BME280;35253;34.688;33.040;2024-02-23T10:48:44;101626.09;;;20.48;100.00
49377;BME280;35253;34.688;33.040;2024-02-23T10:51:12;101633.31;;;20.15;100.00
49377;BME280;35253;34.688;33.040;2024-02-23T10:53:39;101642.53;;;19.81;100.00
49377;BME280;35253;34.688;33.040;2024-02-23T10:56:07;101636.25;;;20.35;100.00
49377;BME280;35253;34.688;33.040;2024-02-23T10:58:33;101633.66;;;20.54;100.00
49377;BME280;35253;34.688;33.040;2024-02-23T11:01:00;101651.03;;;20.31;100.00
49377;BME280;35253;34.688;33.040;2024-02-23T11:03:31;101648.38;;;20.08;100.00
49377;BME280;35253;34.688;33.040;2024-02-23T11:05:59;101628.19;;;20.01;100.00
49377;BME280;35253;34.688;33.040;2024-02-23T11:08:28;101620.75;;;20.25;100.00
49377;BME280;35253;34.688;33.040;2024-02-23T11:10:54;101624.03;;;20.40;100.00
49377;BME280;35253;34.688;33.040;2024-02-23T11:13:40;101635.06;;;19.73;100.00
49377;BME280;35253;34.688;33.040;2024-02-23T11:16:07;101633.34;;;19.28;100.00
49377;BME280;35253;34.688;33.040;2024-02-23T11:18:38;101648.09;;;19.24;100.00
49377;BME280;35253;34.688;33.040;2024-02-23T11:21:05;101644.91;;;19.74;100.00
49377;BME280;35253;34.688;33.040;2024-02-23T11:23:47;101638.09;;;19.91;100.00
49377;BME280;35253;34.688;33.040;2024-02-23T11:26:14;101633.88;;;19.98;100.00
49377;BME280;35253;34.688;33.040;2024-02-23T11:28:50;101623.41;;;19.28;100.00
49377;BME280;35253;34.688;33.040;2024-02-23T11:31:21;101624.34;;;19.83;100.00
49377;BME280;35253;34.688;33.040;2024-02-23T11:33:51;101626.84;;;19.53;100.00
49377;BME280;35253;34.688;33.040;2024-02-23T11:36:27;101622.66;;;19.38;100.00
49377;BME280;35253;34.688;33.040;2024-02-23T11:38:54;101622.78;;;20.01;100.00
49377;BME280;35253;34.688;33.040;2024-02-23T11:41:22;101623.97;;;20.31;100.00
49377;BME280;35253;34.688;33.040;2024-02-23T11:43:49;101628.59;;;20.40;100.00
49377;BME280;35253;34.688;33.040;2024-02-23T11:46:16;101624.09;;;20.50;100.00
49377;BME280;35253;34.688;33.040;2024-02-23T11:48:42;101610.16;;;20.54;100.00
49377;BME280;35253;34.688;33.040;2024-02-23T11:51:09;101604.22;;;20.60;100.00
49377;BME280;35253;34.688;33.040;2024-02-23T11:53:39;101598.44;;;20.54;100.00
49377;BME280;35253;34.688;33.040;2024-02-23T11:56:07;101610.41;;;20.51;100.00
49377;BME280;35253;34.688;33.040;2024-02-23T11:58:33;101613.91;;;20.63;100.00
49377;BME280;35253;34.688;33.040;2024-02-23T12:01:02;101610.03;;;20.56;100.00
49377;BME280;35253;34.688;33.040;2024-02-23T12:03:31;101601.38;;;20.62;100.00
49377;BME280;35253;34.688;33.040;2024-02-23T12:05:57;101619.69;;;20.49;100.00
49377;BME280;35253;34.688;33.040;2024-02-23T12:08:27;101608.19;;;20.56;100.00
49377;BME280;35253;34.688;33.040;2024-02-23T12:10:56;101597.53;;;20.44;100.00
49377;BME280;35253;34.688;33.040;2024-02-23T12:13:26;101596.94;;;20.08;100.00
49377;BME280;35253;34.688;33.040;2024-02-23T12:15:53;101600.06;;;19.39;100.00
49377;BME280;35253;34.688;33.040;2024-02-23T12:18:22;101609.38;;;19.01;100.00
49377;BME280;35253;34.688;33.040;2024-02-23T12:21:07;101611.38;;;19.21;100.00
49377;BME280;35253;34.688;33.040;2024-02-23T12:23:43;101619.97;;;19.49;100.00
49377;BME280;35253;34.688;33.040;2024-02-23T12:26:10;101613.81;;;19.58;100.00
49377;BME280;35253;34.688;33.040;2024-02-23T12:28:39;101607.78;;;18.87;100.00